createdAt,value
2019-02-06T00:00:42.442Z,11.7
2019-02-06T00:01:54.818Z,10.6
2019-02-06T00:03:06.735Z,12.3
2019-02-06T00:04:19.128Z,12.2
2019-02-06T00:05:31.188Z,11.1
2019-02-06T00:09:07.854Z,11.4
2019-02-06T00:10:19.958Z,12.4
2019-02-06T00:11:32.151Z,12.4
2019-02-06T00:12:44.401Z,11.6
2019-02-06T00:13:56.469Z,12.4
2019-02-06T00:15:08.669Z,12.7
2019-02-06T00:16:21.047Z,11.9
2019-02-06T00:17:33.131Z,12.8
2019-02-06T00:18:45.863Z,11.3
2019-02-06T00:21:09.711Z,14.2
2019-02-06T00:22:21.834Z,13.3
2019-02-06T00:23:34.041Z,13.1
2019-02-06T00:24:46.398Z,12.4
2019-02-06T00:25:58.463Z,12.5
2019-02-06T00:27:10.608Z,12.7
2019-02-06T00:28:22.806Z,11.3
2019-02-06T00:29:35.006Z,10.9
2019-02-06T00:30:47.288Z,10.5
2019-02-06T00:33:11.582Z,11.2
2019-02-06T00:34:23.855Z,11.8
2019-02-06T00:36:48.180Z,11.6
2019-02-06T00:38:00.365Z,13.8
2019-02-06T00:39:12.638Z,10.4
2019-02-06T00:40:24.832Z,11.6
2019-02-06T00:41:37.020Z,12.4
2019-02-06T00:42:49.370Z,11.8
2019-02-06T00:45:13.603Z,13
2019-02-06T00:46:25.728Z,10.3
2019-02-06T00:47:37.915Z,10.9
2019-02-06T00:48:50.256Z,10.8
2019-02-06T00:51:14.492Z,12
2019-02-06T00:52:26.690Z,11.8
2019-02-06T00:53:38.878Z,12.5
2019-02-06T00:54:51.087Z,12.8
2019-02-06T00:57:15.472Z,10.6
2019-02-06T00:58:27.652Z,13.6
2019-02-06T00:59:39.903Z,10.4
2019-02-06T01:00:52.038Z,11.9
2019-02-06T01:02:04.305Z,12.4
2019-02-06T01:03:16.577Z,10.8
2019-02-06T01:04:28.700Z,11.3
2019-02-06T01:05:40.990Z,11.5
2019-02-06T01:06:53.025Z,9.7
2019-02-06T01:09:17.503Z,11.7
2019-02-06T01:10:29.703Z,11.2
2019-02-06T01:11:41.882Z,12.9
2019-02-06T01:12:54.052Z,11.8
2019-02-06T01:14:06.260Z,11
2019-02-06T01:15:18.444Z,10.5
2019-02-06T01:17:42.800Z,10.3
2019-02-06T01:18:55.034Z,9
2019-02-06T01:21:19.971Z,10.8
2019-02-06T01:22:31.635Z,12.3
2019-02-06T01:24:55.917Z,11
2019-02-06T01:27:20.321Z,10.3
2019-02-06T01:28:32.538Z,10.9
2019-02-06T01:29:44.702Z,12.1
2019-02-06T01:30:56.893Z,10.1
2019-02-06T01:33:21.337Z,11.3
2019-02-06T01:34:33.479Z,11.4
2019-02-06T01:36:57.960Z,11.2
2019-02-06T01:39:22.253Z,11.7
2019-02-06T01:40:34.444Z,10.1
2019-02-06T01:41:46.661Z,11.2
2019-02-06T01:42:58.908Z,10.2
2019-02-06T01:45:23.239Z,10.7
2019-02-06T01:46:35.428Z,10.7
2019-02-06T01:47:47.716Z,10.3
2019-02-06T01:48:59.902Z,11
2019-02-06T01:50:12.075Z,11.4
2019-02-06T01:51:24.183Z,11.6
2019-02-06T01:52:36.412Z,9.9
2019-02-06T01:53:48.657Z,12
2019-02-06T01:55:00.917Z,10.6
2019-02-06T01:57:25.157Z,10.7
2019-02-06T01:58:37.430Z,10.7
2019-02-06T01:59:49.624Z,10.5
2019-02-06T02:01:01.773Z,11.8
2019-02-06T02:02:14.022Z,11.9
2019-02-06T02:03:26.130Z,10.1
2019-02-06T02:04:38.325Z,9.8
2019-02-06T02:05:50.643Z,9.3
2019-02-06T02:07:02.724Z,11.4
2019-02-06T02:09:27.179Z,10.8
2019-02-06T02:10:39.293Z,11.3
2019-02-06T02:11:51.555Z,11.7
2019-02-06T02:13:03.700Z,10.1
2019-02-06T02:15:28.069Z,10.2
2019-02-06T02:16:40.476Z,11.7
2019-02-06T02:17:52.457Z,10.1
2019-02-06T02:19:04.671Z,9.4
2019-02-06T02:21:29.111Z,10.3
2019-02-06T02:22:41.262Z,9.7
2019-02-06T02:23:53.500Z,10.3
2019-02-06T02:25:05.669Z,11.1
2019-02-06T02:26:17.891Z,12.3
2019-02-06T02:27:30.080Z,11.1
2019-02-06T02:28:42.285Z,9.9
2019-02-06T02:29:54.472Z,11.6
2019-02-06T02:31:06.633Z,10.9
2019-02-06T02:33:31.020Z,11.1
2019-02-06T02:34:43.266Z,10.4
2019-02-06T02:37:07.637Z,10.9
2019-02-06T02:38:19.861Z,12.5
2019-02-06T02:39:31.966Z,11.6
2019-02-06T02:40:44.222Z,11.5
2019-02-06T02:41:56.337Z,10
2019-02-06T02:43:08.688Z,11.6
2019-02-06T02:45:33.032Z,11.6
2019-02-06T02:46:45.148Z,10
2019-02-06T02:47:57.307Z,11.5
2019-02-06T02:49:09.598Z,12.5
2019-02-06T02:50:21.754Z,10.9
2019-02-06T02:51:33.913Z,11.6
2019-02-06T02:52:46.182Z,12.1
2019-02-06T02:53:58.352Z,10.9
2019-02-06T02:55:10.555Z,10.8
2019-02-06T02:57:34.858Z,12.2
2019-02-06T02:58:47.261Z,10.4
2019-02-06T02:59:59.251Z,11.8
2019-02-06T03:01:11.441Z,9.6
2019-02-06T03:02:23.638Z,12.8
2019-02-06T03:03:35.891Z,13.2
2019-02-06T03:04:48.225Z,12
2019-02-06T03:06:00.390Z,14
2019-02-06T03:07:12.435Z,11.7
2019-02-06T03:09:36.822Z,10.7
2019-02-06T03:10:49.140Z,11.5
2019-02-06T03:12:01.573Z,12.3
2019-02-06T03:13:13.480Z,11.9
2019-02-06T03:14:27.242Z,11.6
2019-02-06T03:15:37.807Z,11.1
2019-02-06T03:16:50.149Z,13.7
2019-02-06T03:18:02.171Z,11.8
2019-02-06T03:19:14.540Z,11.4
2019-02-06T03:21:38.805Z,14.4
2019-02-06T03:22:50.982Z,11.8
2019-02-06T03:24:03.191Z,12.6
2019-02-06T03:25:15.332Z,12
2019-02-06T03:26:27.515Z,13.3
2019-02-06T03:27:39.830Z,13.1
2019-02-06T03:28:52.022Z,12.9
2019-02-06T03:30:04.168Z,11
2019-02-06T03:31:16.553Z,12.7
2019-02-06T03:33:40.709Z,14
2019-02-06T03:34:52.974Z,12.4
2019-02-06T03:36:05.135Z,12.8
2019-02-06T03:37:17.377Z,11.9
2019-02-06T03:38:29.554Z,14.1
2019-02-06T03:39:41.653Z,13.1
2019-02-06T03:40:53.849Z,11.9
2019-02-06T03:42:06.106Z,12.4
2019-02-06T03:43:18.237Z,12.6
2019-02-06T03:45:42.695Z,13.2
2019-02-06T03:46:54.828Z,13.8
2019-02-06T03:48:07.099Z,11.8
2019-02-06T03:49:19.219Z,12.4
2019-02-06T03:50:31.519Z,12.4
2019-02-06T03:51:43.669Z,13.1
2019-02-06T03:52:55.791Z,11.9
2019-02-06T03:54:07.994Z,12.2
2019-02-06T03:55:20.243Z,13.6
2019-02-06T03:57:44.675Z,11.9
2019-02-06T03:58:56.773Z,14
2019-02-06T04:00:09.122Z,12.4
2019-02-06T04:01:21.230Z,12.5
2019-02-06T04:02:33.420Z,13
2019-02-06T04:03:45.626Z,12.6
2019-02-06T04:06:09.914Z,12.3
2019-02-06T04:07:22.356Z,14
2019-02-06T04:09:46.502Z,15
2019-02-06T04:11:01.659Z,13.2
2019-02-06T04:12:12.601Z,12.5
2019-02-06T04:13:23.175Z,13.3
2019-02-06T04:14:36.281Z,14
2019-02-06T04:15:47.621Z,14.2
2019-02-06T04:18:11.936Z,12.7
2019-02-06T04:19:24.292Z,13.4
2019-02-06T04:21:48.492Z,15.3
2019-02-06T04:23:00.791Z,12.8
2019-02-06T04:25:25.128Z,14.8
2019-02-06T04:27:49.405Z,14.4
2019-02-06T04:29:01.687Z,13.4
2019-02-06T04:30:13.812Z,14.7
2019-02-06T04:31:26.139Z,14.2
2019-02-06T04:33:50.398Z,13.3
2019-02-06T04:35:02.598Z,13.4
2019-02-06T04:36:14.901Z,16.1
2019-02-06T04:37:27.205Z,16.4
2019-02-06T04:38:39.357Z,14.1
2019-02-06T04:39:51.364Z,14.7
2019-02-06T04:41:03.571Z,15.4
2019-02-06T04:42:15.821Z,12.5
2019-02-06T04:43:28.019Z,13.4
2019-02-06T04:45:52.512Z,14.1
2019-02-06T04:47:04.838Z,13.1
2019-02-06T04:48:16.821Z,13.6
2019-02-06T04:49:28.923Z,14.7
2019-02-06T04:50:41.250Z,13.2
2019-02-06T04:51:53.369Z,14.7
2019-02-06T04:53:05.571Z,14.2
2019-02-06T04:54:17.680Z,15.5
2019-02-06T04:55:29.961Z,14.6
2019-02-06T04:57:54.275Z,15.2
2019-02-06T04:59:06.472Z,12.4
2019-02-06T05:01:30.936Z,15.3
2019-02-06T05:02:43.038Z,13.8
2019-02-06T05:03:55.257Z,13.1
2019-02-06T05:05:07.439Z,14.6
2019-02-06T05:06:19.636Z,13.6
2019-02-06T05:07:31.924Z,14.8
2019-02-06T05:11:08.411Z,14.3
2019-02-06T05:12:20.683Z,14.4
2019-02-06T05:13:32.842Z,15.7
2019-02-06T05:14:45.528Z,15.7
2019-02-06T05:15:57.178Z,15.2
2019-02-06T05:18:21.595Z,13.7
2019-02-06T05:19:33.858Z,16.6
2019-02-06T05:22:01.312Z,15.7
2019-02-06T05:23:11.742Z,14.1
2019-02-06T05:24:22.537Z,16.4
2019-02-06T05:25:34.807Z,15.2
2019-02-06T05:26:47.131Z,12.3
2019-02-06T05:27:59.191Z,14.8
2019-02-06T05:30:23.522Z,13.6
2019-02-06T05:31:35.849Z,16
2019-02-06T05:34:00.243Z,16.3
2019-02-06T05:35:12.306Z,16.5
2019-02-06T05:37:36.765Z,16.4
2019-02-06T05:40:01.128Z,13.9
2019-02-06T05:41:13.281Z,15.2
2019-02-06T05:42:25.529Z,14.3
2019-02-06T05:43:37.854Z,15.9
2019-02-06T05:47:14.330Z,16.7
2019-02-06T05:49:38.612Z,15.8
2019-02-06T05:50:50.903Z,14.1
2019-02-06T05:52:02.991Z,15.2
2019-02-06T05:53:15.194Z,14.8
2019-02-06T05:54:27.439Z,15.2
2019-02-06T05:55:39.661Z,15.4
2019-02-06T05:59:16.315Z,15.1
2019-02-06T06:00:28.359Z,13.7
2019-02-06T06:01:40.560Z,13.9
2019-02-06T06:02:52.822Z,18.6
2019-02-06T06:04:04.939Z,15.2
2019-02-06T06:05:17.158Z,16
2019-02-06T06:06:29.332Z,15.7
2019-02-06T06:07:41.568Z,12.5
2019-02-06T06:10:05.903Z,15.1
2019-02-06T06:11:18.106Z,14
2019-02-06T06:12:30.306Z,13.5
2019-02-06T06:13:42.582Z,12.9
2019-02-06T06:16:06.889Z,14
2019-02-06T06:17:19.211Z,17.6
2019-02-06T06:18:31.349Z,15.2
2019-02-06T06:22:07.921Z,15.5
2019-02-06T06:23:20.059Z,15
2019-02-06T06:24:32.274Z,14.8
2019-02-06T06:25:44.502Z,16
2019-02-06T06:26:56.711Z,14.7
2019-02-06T06:28:08.895Z,15.1
2019-02-06T06:29:22.517Z,15.6
2019-02-06T06:30:33.245Z,14.6
2019-02-06T06:31:45.480Z,14.9
2019-02-06T06:34:09.789Z,15.8
2019-02-06T06:35:22.024Z,16.2
2019-02-06T06:36:34.263Z,15.4
2019-02-06T06:37:46.479Z,14.4
2019-02-06T06:38:58.727Z,13.2
2019-02-06T06:40:10.824Z,17.3
2019-02-06T06:41:23.043Z,18.2
2019-02-06T06:42:35.168Z,15.8
2019-02-06T06:43:47.362Z,15.9
2019-02-06T06:47:23.934Z,15.5
2019-02-06T06:48:36.213Z,14.5
2019-02-06T06:49:48.310Z,15.9
2019-02-06T06:51:00.614Z,15.5
2019-02-06T06:52:12.706Z,15.8
2019-02-06T06:53:25.091Z,17.1
2019-02-06T06:54:37.098Z,14.6
2019-02-06T06:55:49.410Z,14.9
2019-02-06T06:58:13.743Z,13.8
2019-02-06T06:59:25.868Z,14.9
2019-02-06T07:00:38.069Z,14.6
2019-02-06T07:01:50.257Z,16.7
2019-02-06T07:03:02.508Z,14.9
2019-02-06T07:04:14.709Z,16
2019-02-06T07:06:39.043Z,16.5
2019-02-06T07:07:51.324Z,13.4
2019-02-06T07:10:15.636Z,15.6
2019-02-06T07:11:27.875Z,15.3
2019-02-06T07:12:40.008Z,16.3
2019-02-06T07:13:52.192Z,12.7
2019-02-06T07:15:04.454Z,13.5
2019-02-06T07:16:16.870Z,14.3
2019-02-06T07:17:28.785Z,14.6
2019-02-06T07:18:40.979Z,14.3
2019-02-06T07:22:17.565Z,16.9
2019-02-06T07:23:29.761Z,14.4
2019-02-06T07:24:41.952Z,14.2
2019-02-06T07:25:54.236Z,14.7
2019-02-06T07:27:06.412Z,15.4
2019-02-06T07:28:18.571Z,13.7
2019-02-06T07:29:30.820Z,16
2019-02-06T07:30:42.998Z,15.1
2019-02-06T07:31:55.185Z,15
2019-02-06T07:34:19.574Z,14.5
2019-02-06T07:35:31.692Z,16.1
2019-02-06T07:36:43.891Z,14.8
2019-02-06T07:37:56.153Z,14.6
2019-02-06T07:39:08.280Z,16.2
2019-02-06T07:40:20.459Z,13.1
2019-02-06T07:41:32.727Z,12.5
2019-02-06T07:42:44.844Z,12.3
2019-02-06T07:43:57.201Z,14.2
2019-02-06T07:46:21.468Z,14.1
2019-02-06T07:47:33.946Z,12.1
2019-02-06T07:48:45.884Z,13.6
2019-02-06T07:49:58.037Z,12.5
2019-02-06T07:52:22.484Z,15.2
2019-02-06T07:53:34.606Z,13.6
2019-02-06T07:54:46.826Z,16.2
2019-02-06T07:55:59.062Z,14.1
2019-02-06T07:59:35.573Z,14.7
2019-02-06T08:00:47.817Z,14.1
2019-02-06T08:01:59.955Z,13.4
2019-02-06T08:04:24.473Z,13.9
2019-02-06T08:06:48.793Z,14.7
2019-02-06T08:08:00.971Z,12.4
2019-02-06T08:11:37.527Z,13.4
2019-02-06T08:14:01.914Z,15.7
2019-02-06T08:15:14.229Z,14.2
2019-02-06T08:16:26.363Z,12.5
2019-02-06T08:17:38.477Z,13.4
2019-02-06T08:18:50.689Z,13.6
2019-02-06T08:20:02.863Z,12.3
2019-02-06T08:22:27.280Z,12.4
2019-02-06T08:23:39.454Z,12.8
2019-02-06T08:24:51.641Z,14.7
2019-02-06T08:26:03.842Z,14.7
2019-02-06T08:27:16.142Z,13
2019-02-06T08:28:28.243Z,13.2
2019-02-06T08:29:40.507Z,12.6
2019-02-06T08:30:52.626Z,14.1
2019-02-06T08:32:04.808Z,12.7
2019-02-06T08:35:41.418Z,11.5
2019-02-06T08:36:53.669Z,14.7
2019-02-06T08:38:05.865Z,14.1
2019-02-06T08:39:17.978Z,15.5
2019-02-06T08:40:30.274Z,13.7
2019-02-06T08:41:42.443Z,13.8
2019-02-06T08:42:54.589Z,13.3
2019-02-06T08:44:06.752Z,12.2
2019-02-06T08:47:43.336Z,13.8
2019-02-06T08:48:55.603Z,13.2
2019-02-06T08:50:07.750Z,11.1
2019-02-06T08:51:19.902Z,13.1
2019-02-06T08:52:32.102Z,12.3
2019-02-06T08:53:44.295Z,11.9
2019-02-06T08:54:56.488Z,13.1
2019-02-06T08:56:08.797Z,12.4
2019-02-06T08:58:33.165Z,12.4
2019-02-06T08:59:45.372Z,12.1
2019-02-06T09:00:57.562Z,14.2
2019-02-06T09:02:09.740Z,13.3
2019-02-06T09:03:21.938Z,11.5
2019-02-06T09:04:34.049Z,12.9
2019-02-06T09:05:46.480Z,15.4
2019-02-06T09:06:58.442Z,12.5
2019-02-06T09:10:35.145Z,13.7
2019-02-06T09:11:47.258Z,13.7
2019-02-06T09:12:59.436Z,13.1
2019-02-06T09:14:11.617Z,13.6
2019-02-06T09:16:36.017Z,12.7
2019-02-06T09:17:48.394Z,13.2
2019-02-06T09:19:00.619Z,11.6
2019-02-06T09:20:12.593Z,13.6
2019-02-06T09:22:37.005Z,12.7
2019-02-06T09:23:49.178Z,14
2019-02-06T09:25:01.465Z,13.4
2019-02-06T09:26:13.659Z,12
2019-02-06T09:27:25.764Z,13.3
2019-02-06T09:28:38.066Z,14.9
2019-02-06T09:29:50.177Z,11.9
2019-02-06T09:31:02.786Z,11.1
2019-02-06T09:32:14.541Z,11.5
2019-02-06T09:34:39.022Z,10.8
2019-02-06T09:35:51.133Z,12.8
2019-02-06T09:38:15.586Z,13.2
2019-02-06T09:40:39.922Z,13
2019-02-06T09:41:52.191Z,12.4
2019-02-06T09:43:04.414Z,13.9
2019-02-06T09:44:16.567Z,12.2
2019-02-06T09:47:53.328Z,12
2019-02-06T09:49:05.276Z,10.6
2019-02-06T09:50:17.481Z,11.1
2019-02-06T09:51:29.807Z,11.7
2019-02-06T09:52:41.884Z,13.8
2019-02-06T09:55:06.352Z,13.5
2019-02-06T09:56:18.467Z,11.3
2019-02-06T09:59:55.063Z,14.4
2019-02-06T10:02:19.478Z,11.2
2019-02-06T10:04:43.830Z,14
2019-02-06T10:05:56.086Z,10.4
2019-02-06T10:07:08.207Z,12
2019-02-06T10:08:20.519Z,13.7
2019-02-06T10:10:44.803Z,12.8
2019-02-06T10:11:57.031Z,11.7
2019-02-06T10:14:21.387Z,13.4
2019-02-06T10:16:45.799Z,10.2
2019-02-06T10:19:10.170Z,9.9
2019-02-06T10:20:22.433Z,11.9
2019-02-06T10:22:46.775Z,12.3
2019-02-06T10:23:58.960Z,11.6
2019-02-06T10:25:11.232Z,10.3
2019-02-06T10:26:23.343Z,12
2019-02-06T10:28:47.729Z,12.4
2019-02-06T10:30:00.173Z,14
2019-02-06T10:31:12.128Z,12.2
2019-02-06T10:32:24.514Z,12.8
2019-02-06T10:34:48.705Z,14.2
2019-02-06T10:36:00.903Z,13.8
2019-02-06T10:37:13.106Z,10.7
2019-02-06T10:38:25.404Z,11.6
2019-02-06T10:39:37.607Z,10.8
2019-02-06T10:40:49.680Z,11.7
2019-02-06T10:43:14.084Z,11.4
2019-02-06T10:44:26.362Z,13
2019-02-06T10:46:50.846Z,12.7
2019-02-06T10:48:02.906Z,11.2
2019-02-06T10:49:15.046Z,12.7
2019-02-06T10:50:27.460Z,11.1
2019-02-06T10:51:39.575Z,13.2
2019-02-06T10:52:51.691Z,14
2019-02-06T10:54:04.002Z,11.6
2019-02-06T10:55:16.102Z,11.1
2019-02-06T11:00:04.810Z,15
2019-02-06T11:02:30.735Z,11.5
2019-02-06T11:03:41.464Z,11.6
2019-02-06T11:04:53.614Z,13.2
2019-02-06T11:07:17.973Z,13.8
2019-02-06T11:08:30.198Z,10
2019-02-06T11:12:06.770Z,11
2019-02-06T11:13:19.143Z,13.8
2019-02-06T11:14:31.165Z,12.4
2019-02-06T11:15:43.491Z,11.5
2019-02-06T11:16:56.227Z,12.8
2019-02-06T11:19:20.044Z,12.4
2019-02-06T11:22:56.511Z,11.5
2019-02-06T11:24:08.708Z,10.4
2019-02-06T11:25:20.971Z,11.1
2019-02-06T11:26:33.098Z,12.8
2019-02-06T11:28:57.568Z,11.5
2019-02-06T11:30:09.682Z,9.8
2019-02-06T11:31:21.871Z,11.6
2019-02-06T11:32:34.156Z,13.1
2019-02-06T11:36:10.664Z,11.2
2019-02-06T11:37:22.934Z,12.3
2019-02-06T11:38:35.066Z,11.8
2019-02-06T11:39:47.398Z,12.1
2019-02-06T11:40:59.452Z,12.4
2019-02-06T11:43:23.834Z,12.3
2019-02-06T11:44:36.099Z,11.5
2019-02-06T11:48:13.483Z,10.5
2019-02-06T11:50:37.058Z,12.4
2019-02-06T11:51:49.253Z,12.7
2019-02-06T11:53:01.438Z,10.7
2019-02-06T11:54:13.599Z,9.1
2019-02-06T11:55:25.787Z,10.6
2019-02-06T11:59:02.520Z,11
2019-02-06T12:00:14.661Z,10.5
2019-02-06T12:01:26.864Z,13
2019-02-06T12:02:38.958Z,11.1
2019-02-06T12:03:51.239Z,10.6
2019-02-06T12:05:03.444Z,12.3
2019-02-06T12:06:15.548Z,10.6
2019-02-06T12:07:27.912Z,10.4
2019-02-06T12:11:04.389Z,10.4
2019-02-06T12:12:16.587Z,9.9
2019-02-06T12:13:28.790Z,12.5
2019-02-06T12:14:41.021Z,12.2
2019-02-06T12:15:53.157Z,11.3
2019-02-06T12:17:05.337Z,12.1
2019-02-06T12:18:17.715Z,12
2019-02-06T12:19:29.700Z,12.2
2019-02-06T12:20:42.007Z,9.7
2019-02-06T12:23:06.288Z,11.6
2019-02-06T12:24:18.581Z,10.1
2019-02-06T12:25:30.814Z,10.5
2019-02-06T12:26:42.940Z,12.3
2019-02-06T12:27:59.367Z,11.5
2019-02-06T12:29:07.270Z,10.6
2019-02-06T12:31:31.643Z,10.9
2019-02-06T12:35:12.420Z,10.3
2019-02-06T12:36:20.449Z,9.1
2019-02-06T12:37:32.621Z,10.3
2019-02-06T12:38:44.832Z,9.3
2019-02-06T12:41:09.273Z,10.2
2019-02-06T12:42:21.398Z,9.7
2019-02-06T12:43:33.615Z,8.8
2019-02-06T12:44:45.863Z,11.2
2019-02-06T12:48:22.445Z,10.2
2019-02-06T12:49:34.804Z,8.8
2019-02-06T12:50:46.838Z,8.7
2019-02-06T12:53:11.159Z,9.4
2019-02-06T12:55:36.727Z,10.2
2019-02-06T12:56:47.766Z,8.9
2019-02-06T12:59:12.240Z,10.5
2019-02-06T13:00:24.411Z,9.6
2019-02-06T13:02:48.714Z,9
2019-02-06T13:04:00.943Z,9.1
2019-02-06T13:05:13.241Z,7.6
2019-02-06T13:06:25.401Z,7.1
2019-02-06T13:07:37.584Z,8.5
2019-02-06T13:08:49.832Z,8
2019-02-06T13:11:14.217Z,8.7
2019-02-06T13:12:26.351Z,9.7
2019-02-06T13:13:38.593Z,8.3
2019-02-06T13:14:50.806Z,8.1
2019-02-06T13:17:15.137Z,8.7
2019-02-06T13:18:27.336Z,8.4
2019-02-06T13:19:39.448Z,7.4
2019-02-06T13:23:16.031Z,8
2019-02-06T13:24:28.236Z,7.3
2019-02-06T13:25:40.434Z,6.2
2019-02-06T13:26:52.630Z,7.4
2019-02-06T13:28:04.824Z,8.2
2019-02-06T13:29:17.079Z,6.5
2019-02-06T13:30:29.214Z,8.7
2019-02-06T13:31:41.466Z,6.2
2019-02-06T13:32:53.796Z,8
2019-02-06T13:35:18.137Z,7.4
2019-02-06T13:36:30.191Z,6.4
2019-02-06T13:37:42.475Z,7.4
2019-02-06T13:38:54.580Z,6.8
2019-02-06T13:40:06.862Z,6.5
2019-02-06T13:41:19.009Z,6.8
2019-02-06T13:43:43.476Z,6.7
2019-02-06T13:47:20.103Z,7.1
2019-02-06T13:48:32.138Z,7.4
2019-02-06T13:49:44.431Z,10.1
2019-02-06T13:50:57.974Z,8.8
2019-02-06T13:53:20.926Z,5.1
2019-02-06T13:54:33.161Z,6.8
2019-02-06T13:55:45.390Z,6.6
2019-02-06T13:56:57.538Z,4.9
2019-02-06T14:00:34.158Z,4.9
2019-02-06T14:01:46.446Z,9.2
2019-02-06T14:02:58.506Z,5.5
2019-02-06T14:04:10.779Z,5.2
2019-02-06T14:05:25.603Z,4.6
2019-02-06T14:06:35.858Z,5.6
2019-02-06T14:07:47.422Z,5.8
2019-02-06T14:11:23.860Z,5.5
2019-02-06T14:12:36.086Z,5.2
2019-02-06T14:15:00.477Z,5.3
2019-02-06T14:16:12.757Z,5.9
2019-02-06T14:17:24.921Z,5.1
2019-02-06T14:18:37.041Z,7.1
2019-02-06T14:19:49.260Z,6.3
2019-02-06T14:21:01.634Z,5.6
2019-02-06T14:23:25.850Z,5.1
2019-02-06T14:24:38.102Z,6.7
2019-02-06T14:25:50.239Z,5.7
2019-02-06T14:27:02.503Z,6.5
2019-02-06T14:29:26.796Z,6.7
2019-02-06T14:30:39.124Z,6.3
2019-02-06T14:31:51.209Z,6.9
2019-02-06T14:33:03.448Z,7.2
2019-02-06T14:35:27.854Z,7.7
2019-02-06T14:36:40.038Z,6.8
2019-02-06T14:37:52.371Z,7.8
2019-02-06T14:39:04.359Z,8.7
2019-02-06T14:41:28.872Z,6.1
2019-02-06T14:42:42.267Z,6.8
2019-02-06T14:43:53.136Z,7.4
2019-02-06T14:45:05.360Z,6.8
2019-02-06T14:48:41.992Z,6.7
2019-02-06T14:49:54.115Z,7
2019-02-06T14:51:06.412Z,5.9
2019-02-06T14:52:18.739Z,8.9
2019-02-06T14:53:30.778Z,6.4
2019-02-06T14:54:42.900Z,6.9
2019-02-06T14:55:55.180Z,9.7
2019-02-06T14:57:07.302Z,6
2019-02-06T14:59:31.750Z,5.7
2019-02-06T15:00:43.987Z,7.7
2019-02-06T15:01:56.149Z,6.3
2019-02-06T15:03:08.449Z,8.4
2019-02-06T15:04:21.338Z,6.9
2019-02-06T15:05:32.746Z,6.1
2019-02-06T15:06:44.922Z,5.9
2019-02-06T15:07:57.068Z,5.6
2019-02-06T15:09:09.346Z,6.9
2019-02-06T15:11:33.720Z,7
2019-02-06T15:12:45.826Z,7.5
2019-02-06T15:15:10.254Z,6.2
2019-02-06T15:16:22.600Z,9.2
2019-02-06T15:17:34.698Z,6.3
2019-02-06T15:18:46.799Z,6.2
2019-02-06T15:19:59.006Z,6.1
2019-02-06T15:21:11.295Z,6.5
2019-02-06T15:24:47.930Z,6.4
2019-02-06T15:25:59.980Z,8
2019-02-06T15:27:12.435Z,6.5
2019-02-06T15:28:24.454Z,7.5
2019-02-06T15:29:36.575Z,5.9
2019-02-06T15:30:48.831Z,7.5
2019-02-06T15:32:01.040Z,6.7
2019-02-06T15:35:37.648Z,6.3
2019-02-06T15:36:49.757Z,8.1
2019-02-06T15:38:02.008Z,7.4
2019-02-06T15:39:14.177Z,6.2
2019-02-06T15:40:26.398Z,6.8
2019-02-06T15:41:38.518Z,6.5
2019-02-06T15:42:50.811Z,6.2
2019-02-06T15:44:03.021Z,8.6
2019-02-06T15:47:39.500Z,6.4
2019-02-06T15:48:51.773Z,6.3
2019-02-06T15:50:03.996Z,7.2
2019-02-06T15:51:16.090Z,7.6
2019-02-06T15:52:28.381Z,7
2019-02-06T15:53:40.577Z,6.1
2019-02-06T15:54:52.677Z,5.8
2019-02-06T15:56:04.868Z,7
2019-02-06T15:57:17.162Z,7.4
2019-02-06T15:59:41.608Z,7.4
2019-02-06T16:00:53.656Z,8.7
2019-02-06T16:02:05.918Z,5.5
2019-02-06T16:03:18.116Z,7.1
2019-02-06T16:04:30.327Z,6.2
2019-02-06T16:05:42.433Z,6.6
2019-02-06T16:06:54.630Z,7.9
2019-02-06T16:08:06.841Z,7.8
2019-02-06T16:09:19.037Z,7.2
2019-02-06T16:11:43.484Z,6.6
2019-02-06T16:12:55.681Z,7.5
2019-02-06T16:14:07.801Z,6.5
2019-02-06T16:15:20.077Z,6.6
2019-02-06T16:16:32.199Z,5.5
2019-02-06T16:17:44.468Z,6.2
2019-02-06T16:18:56.683Z,8
2019-02-06T16:20:13.135Z,7.9
2019-02-06T16:21:22.883Z,6.3
2019-02-06T16:23:45.367Z,5.8
2019-02-06T16:24:58.149Z,6.9
2019-02-06T16:26:11.656Z,7.7
2019-02-06T16:27:21.981Z,7.9
2019-02-06T16:29:46.342Z,9.6
2019-02-06T16:30:58.617Z,5.6
2019-02-06T16:32:10.824Z,6.5
2019-02-06T16:33:22.978Z,7.7
2019-02-06T16:35:47.405Z,5.9
2019-02-06T16:36:59.651Z,6.3
2019-02-06T16:38:11.788Z,6.1
2019-02-06T16:39:23.984Z,6.1
2019-02-06T16:40:36.103Z,4.9
2019-02-06T16:41:48.358Z,6.9
2019-02-06T16:43:00.561Z,6.4
2019-02-06T16:44:12.782Z,8.4
2019-02-06T16:45:24.977Z,6.9
2019-02-06T16:47:49.277Z,6.8
2019-02-06T16:49:01.569Z,6.5
2019-02-06T16:50:13.684Z,6.3
2019-02-06T16:51:25.865Z,7.2
2019-02-06T16:52:38.230Z,6.8
2019-02-06T16:53:50.329Z,6.5
2019-02-06T16:56:14.652Z,7
2019-02-06T16:57:27.000Z,6.3
2019-02-06T16:59:51.273Z,5.4
2019-02-06T17:01:03.432Z,4.7
2019-02-06T17:02:15.784Z,7
2019-02-06T17:03:27.853Z,5.1
2019-02-06T17:04:42.388Z,5.5
2019-02-06T17:05:52.694Z,5.8
2019-02-06T17:07:04.497Z,4.2
2019-02-06T17:08:16.615Z,6.8
2019-02-06T17:09:28.802Z,5.1
2019-02-06T17:11:53.437Z,4.8
2019-02-06T17:13:05.383Z,4.7
2019-02-06T17:14:17.592Z,5.3
2019-02-06T17:15:29.764Z,8.4
2019-02-06T17:16:41.984Z,10.2
2019-02-06T17:17:54.177Z,9.4
2019-02-06T17:19:06.449Z,9.6
2019-02-06T17:20:18.559Z,10.4
2019-02-06T17:21:30.747Z,12.5
2019-02-06T17:23:55.253Z,11.3
2019-02-06T17:25:07.442Z,9.4
2019-02-06T17:26:19.525Z,10.7
2019-02-06T17:27:31.962Z,10.3
2019-02-06T17:28:43.915Z,11
2019-02-06T17:29:56.191Z,10.1
2019-02-06T17:31:08.367Z,10.2
2019-02-06T17:32:20.585Z,9.7
2019-02-06T17:33:32.751Z,10.8
2019-02-06T17:35:57.178Z,10.5
2019-02-06T17:37:12.249Z,11
2019-02-06T17:38:22.877Z,13.3
2019-02-06T17:39:33.688Z,12.9
2019-02-06T17:40:45.882Z,11.9
2019-02-06T17:41:58.091Z,12.8
2019-02-06T17:43:10.258Z,10.6
2019-02-06T17:44:22.538Z,12.3
2019-02-06T17:45:34.670Z,12.9
2019-02-06T17:47:59.130Z,12.2
2019-02-06T17:49:11.318Z,11.6
2019-02-06T17:50:23.442Z,14.5
2019-02-06T17:51:35.630Z,12
2019-02-06T17:52:47.896Z,13.3
2019-02-06T17:54:00.031Z,12.5
2019-02-06T17:55:12.316Z,11
2019-02-06T17:56:24.408Z,11.9
2019-02-06T17:57:36.726Z,11.9
2019-02-06T18:00:01.245Z,12.2
2019-02-06T18:01:13.196Z,11.1
2019-02-06T18:02:25.421Z,13.1
2019-02-06T18:03:37.669Z,13.7
2019-02-06T18:04:49.785Z,10.4
2019-02-06T18:06:02.040Z,12.5
2019-02-06T18:07:14.259Z,13
2019-02-06T18:08:26.371Z,14.4
2019-02-06T18:09:38.571Z,12.1
2019-02-06T18:12:02.959Z,10.6
2019-02-06T18:13:15.176Z,14.2
2019-02-06T18:14:27.358Z,12
2019-02-06T18:15:39.611Z,12.6
2019-02-06T18:16:52.379Z,13.2
2019-02-06T18:18:04.107Z,11.5
2019-02-06T18:19:16.195Z,11.1
2019-02-06T18:20:28.334Z,13.6
2019-02-06T18:24:05.046Z,10.8
2019-02-06T18:25:17.107Z,11.7
2019-02-06T18:26:29.329Z,14
2019-02-06T18:27:41.487Z,12
2019-02-06T18:28:53.685Z,12.3
2019-02-06T18:30:05.892Z,11.4
2019-02-06T18:31:18.081Z,10.9
2019-02-06T18:32:30.327Z,13
2019-02-06T18:33:42.513Z,11.5
2019-02-06T18:36:07.051Z,11.4
2019-02-06T18:37:19.041Z,11.8
2019-02-06T18:38:31.499Z,11.3
2019-02-06T18:39:43.435Z,12.1
2019-02-06T18:40:55.696Z,11.9
2019-02-06T18:42:07.957Z,10.7
2019-02-06T18:43:20.022Z,9.6
2019-02-06T18:44:32.276Z,11.1
2019-02-06T18:48:08.787Z,11.8
2019-02-06T18:49:21.133Z,13.3
2019-02-06T18:50:33.249Z,10.8
2019-02-06T18:51:45.379Z,11.1
2019-02-06T18:52:57.638Z,8.9
2019-02-06T18:54:09.762Z,9.4
2019-02-06T18:55:22.016Z,10.4
2019-02-06T18:56:34.217Z,10
2019-02-06T18:57:46.423Z,10.4
2019-02-06T19:01:23.061Z,10.7
2019-02-06T19:03:47.350Z,9.8
2019-02-06T19:04:59.589Z,12
2019-02-06T19:06:11.696Z,10.6
2019-02-06T19:08:36.193Z,11.6
2019-02-06T19:09:48.341Z,12.4
2019-02-06T19:12:12.662Z,12
2019-02-06T19:13:24.854Z,13.9
2019-02-06T19:14:37.048Z,12.1
2019-02-06T19:15:49.263Z,12.5
2019-02-06T19:17:01.447Z,10.3
2019-02-06T19:18:13.714Z,11.2
2019-02-06T19:19:25.873Z,10.7
2019-02-06T19:20:38.012Z,12.7
2019-02-06T19:24:14.687Z,10.5
2019-02-06T19:25:26.792Z,11.7
2019-02-06T19:26:39.046Z,12
2019-02-06T19:27:51.204Z,11.8
2019-02-06T19:29:03.447Z,16.5
2019-02-06T19:30:15.580Z,10.9
2019-02-06T19:31:27.771Z,12.1
2019-02-06T19:32:40.034Z,11.1
2019-02-06T19:33:52.250Z,13.5
2019-02-06T19:36:16.549Z,10
2019-02-06T19:37:28.739Z,11.6
2019-02-06T19:38:42.319Z,11.1
2019-02-06T19:39:53.126Z,12.2
2019-02-06T19:41:05.542Z,11.6
2019-02-06T19:42:18.021Z,12.5
2019-02-06T19:43:31.103Z,12
2019-02-06T19:44:41.971Z,12.2
2019-02-06T19:45:54.398Z,11.7
2019-02-06T19:48:18.524Z,12.1
2019-02-06T19:49:30.751Z,11.1
2019-02-06T19:50:42.956Z,12
2019-02-06T19:51:55.127Z,11.9
2019-02-06T19:53:07.340Z,13.2
2019-02-06T19:54:19.450Z,12.8
2019-02-06T19:56:43.903Z,11.8
2019-02-06T19:57:56.029Z,13.5
2019-02-06T20:00:20.433Z,11.1
2019-02-06T20:01:32.610Z,12.6
2019-02-06T20:02:44.810Z,14.5
2019-02-06T20:03:57.083Z,13
2019-02-06T20:05:09.193Z,10.9
2019-02-06T20:06:21.492Z,11.6
2019-02-06T20:07:33.574Z,13.4
2019-02-06T20:08:45.770Z,11.2
2019-02-06T20:12:22.443Z,11.5